createdAt,value
2022-08-11T00:01:59.142Z,0.85
2022-08-11T00:04:26.999Z,1.10
2022-08-11T00:06:53.947Z,0.85
2022-08-11T00:09:22.451Z,1.10
2022-08-11T00:11:50.053Z,1.10
2022-08-11T00:14:22.210Z,1.10
2022-08-11T00:16:55.098Z,0.98
2022-08-11T00:20:13.824Z,1.20
2022-08-11T00:22:10.888Z,0.90
2022-08-11T00:24:53.639Z,0.95
2022-08-11T00:27:30.332Z,0.90
2022-08-11T00:29:58.019Z,0.85
2022-08-11T00:32:24.734Z,1.00
2022-08-11T00:34:52.471Z,0.88
2022-08-11T00:37:39.399Z,0.90
2022-08-11T00:40:10.215Z,1.00
2022-08-11T00:42:58.598Z,0.90
2022-08-11T00:45:25.085Z,0.90
2022-08-11T00:48:00.256Z,1.30
2022-08-11T00:50:30.832Z,1.13
2022-08-11T00:53:12.720Z,1.05
2022-08-11T00:55:58.862Z,1.17
2022-08-11T00:58:26.518Z,1.25
2022-08-11T01:01:13.462Z,0.85
2022-08-11T01:03:42.900Z,1.10
2022-08-11T01:06:23.056Z,1.05
2022-08-11T01:09:21.021Z,0.90
2022-08-11T01:12:08.049Z,0.88
2022-08-11T01:14:52.782Z,0.93
2022-08-11T01:17:38.002Z,1.10
2022-08-11T01:20:45.417Z,0.98
2022-08-11T01:23:29.360Z,1.00
2022-08-11T01:26:10.889Z,0.88
2022-08-11T01:28:40.537Z,0.98
2022-08-11T01:31:06.948Z,1.10
2022-08-11T01:33:54.622Z,0.80
2022-08-11T01:36:53.512Z,0.82
2022-08-11T01:42:27.554Z,0.90
2022-08-11T01:45:10.389Z,0.70
2022-08-11T01:47:53.146Z,0.95
2022-08-11T01:50:23.320Z,1.17
2022-08-11T01:53:05.122Z,0.98
2022-08-11T01:55:39.337Z,0.90
2022-08-11T01:58:12.913Z,1.13
2022-08-11T02:00:47.365Z,1.10
2022-08-11T02:03:20.451Z,0.70
2022-08-11T02:06:24.788Z,0.90
2022-08-11T02:09:14.557Z,0.70
2022-08-11T02:11:45.700Z,0.90
2022-08-11T02:14:15.388Z,0.90
2022-08-11T02:16:55.499Z,0.80
2022-08-11T02:19:57.682Z,0.75
2022-08-11T02:22:57.704Z,0.70
2022-08-11T02:25:29.876Z,0.88
2022-08-11T02:28:01.645Z,0.63
2022-08-11T02:30:32.499Z,0.75
2022-08-11T02:33:24.475Z,1.10
2022-08-11T02:36:09.314Z,0.80
2022-08-11T02:38:56.147Z,0.75
2022-08-11T02:41:47.157Z,0.73
2022-08-11T02:44:13.561Z,0.98
2022-08-11T02:46:58.723Z,0.50
2022-08-11T02:50:06.304Z,0.60
2022-08-11T02:52:45.511Z,0.60
2022-08-11T02:55:48.076Z,0.73
2022-08-11T02:58:11.530Z,0.65
2022-08-11T03:01:05.180Z,0.90
2022-08-11T03:03:39.289Z,0.80
2022-08-11T03:06:24.357Z,0.80
2022-08-11T03:08:57.614Z,0.50
2022-08-11T03:12:01.653Z,0.70
2022-08-11T03:15:14.355Z,0.50
2022-08-11T03:17:56.242Z,0.60
2022-08-11T03:20:38.076Z,0.60
2022-08-11T03:23:34.376Z,0.68
2022-08-11T03:26:07.319Z,0.70
2022-08-11T03:28:45.351Z,0.75
2022-08-11T03:31:16.239Z,0.50
2022-08-11T03:34:06.600Z,0.52
2022-08-11T03:37:15.346Z,0.55
2022-08-11T03:39:39.772Z,0.70
2022-08-11T03:42:25.013Z,0.80
2022-08-11T03:45:10.394Z,0.60
2022-08-11T03:47:36.789Z,0.50
2022-08-11T03:50:10.499Z,0.50
2022-08-11T03:53:06.311Z,0.50
2022-08-11T03:55:45.021Z,0.50
2022-08-11T03:58:31.893Z,0.50
2022-08-11T04:01:01.186Z,0.60
2022-08-11T04:03:33.882Z,0.60
2022-08-11T04:06:08.547Z,0.60
2022-08-11T04:08:38.090Z,0.47
2022-08-11T04:11:10.681Z,0.52
2022-08-11T04:13:52.477Z,0.40
2022-08-11T04:16:38.374Z,0.60
2022-08-11T04:19:24.836Z,0.47
2022-08-11T04:21:51.237Z,0.40
2022-08-11T04:24:39.483Z,0.50
2022-08-11T04:27:25.287Z,0.52
2022-08-11T04:30:17.552Z,0.40
2022-08-11T04:32:43.990Z,0.32
2022-08-11T04:35:28.649Z,0.50
2022-08-11T04:37:55.080Z,0.43
2022-08-11T04:40:27.355Z,0.50
2022-08-11T04:43:21.414Z,0.50
2022-08-11T04:45:50.665Z,0.50
2022-08-11T04:48:35.607Z,0.40
2022-08-11T04:51:27.049Z,0.40
2022-08-11T04:54:17.954Z,0.50
2022-08-11T04:57:04.577Z,0.50
2022-08-11T04:59:55.059Z,0.40
2022-08-11T05:02:40.444Z,0.50
2022-08-11T05:05:32.806Z,0.60
2022-08-11T05:07:59.199Z,0.57
2022-08-11T05:10:43.532Z,0.52
2022-08-11T05:13:29.020Z,0.50
2022-08-11T05:16:18.737Z,0.50
2022-08-11T05:19:08.667Z,0.60
2022-08-11T05:21:55.007Z,0.57
2022-08-11T05:24:43.697Z,0.47
2022-08-11T05:27:29.676Z,0.50
2022-08-11T05:30:14.588Z,0.40
2022-08-11T05:33:02.618Z,0.50
2022-08-11T05:36:02.209Z,0.50
2022-08-11T05:38:44.485Z,0.40
2022-08-11T05:41:31.284Z,0.60
2022-08-11T05:44:20.005Z,0.52
2022-08-11T05:47:06.980Z,0.40
2022-08-11T05:49:53.206Z,0.50
2022-08-11T05:52:46.855Z,0.60
2022-08-11T05:55:32.869Z,0.50
2022-08-11T05:58:03.726Z,0.40
2022-08-11T06:00:30.524Z,0.65
2022-08-11T06:03:01.355Z,0.50
2022-08-11T06:05:38.267Z,0.60
2022-08-11T06:08:12.272Z,0.45
2022-08-11T06:10:40.660Z,0.40
2022-08-11T06:13:07.929Z,0.60
2022-08-11T06:15:43.600Z,0.60
2022-08-11T06:18:12.131Z,0.70
2022-08-11T06:20:52.062Z,0.77
2022-08-11T06:23:23.154Z,0.70
2022-08-11T06:25:51.312Z,0.63
2022-08-11T06:28:22.743Z,0.85
2022-08-11T06:30:49.587Z,0.77
2022-08-11T06:33:18.019Z,0.55
2022-08-11T06:35:51.737Z,0.57
2022-08-11T06:38:38.129Z,0.50
2022-08-11T06:41:31.903Z,0.60
2022-08-11T06:44:03.232Z,0.73
2022-08-11T06:46:39.042Z,0.60
2022-08-11T06:49:06.888Z,0.60
2022-08-11T06:51:35.168Z,0.65
2022-08-11T06:54:04.364Z,0.50
2022-08-11T06:57:29.342Z,0.60
2022-08-11T07:00:00.772Z,0.50
2022-08-11T07:02:31.313Z,0.50
2022-08-11T07:05:03.666Z,0.50
2022-08-11T07:08:34.853Z,0.55
2022-08-11T07:11:11.968Z,0.70
2022-08-11T07:13:58.196Z,0.60
2022-08-11T07:16:28.914Z,0.60
2022-08-11T07:19:20.158Z,0.50
2022-08-11T07:22:05.631Z,0.60
2022-08-11T07:25:02.067Z,0.57
2022-08-11T07:27:51.120Z,0.50
2022-08-11T07:30:17.915Z,0.50
2022-08-11T07:32:52.454Z,0.40
2022-08-11T07:35:24.736Z,0.60
2022-08-11T07:38:01.564Z,0.40
2022-08-11T07:40:29.304Z,0.60
2022-08-11T07:42:57.053Z,0.40
2022-08-11T07:45:43.123Z,0.50
2022-08-11T07:48:28.714Z,0.70
2022-08-11T07:51:14.381Z,0.77
2022-08-11T07:53:57.846Z,0.60
2022-08-11T07:56:29.596Z,0.80
2022-08-11T07:59:58.548Z,0.65
2022-08-11T08:02:31.110Z,0.60
2022-08-11T08:05:17.322Z,0.60
2022-08-11T08:08:02.283Z,0.65
2022-08-11T08:10:47.946Z,0.60
2022-08-11T08:13:33.150Z,0.60
2022-08-11T08:16:18.096Z,0.52
2022-08-11T08:18:44.958Z,0.73
2022-08-11T08:21:14.909Z,0.65
2022-08-11T08:23:53.722Z,0.70
2022-08-11T08:26:41.421Z,0.80
2022-08-11T08:29:26.510Z,0.63
2022-08-11T08:31:53.636Z,0.50
2022-08-11T08:34:20.586Z,0.60
2022-08-11T08:36:47.786Z,0.80
2022-08-11T08:39:16.561Z,0.60
2022-08-11T08:41:43.420Z,0.40
2022-08-11T08:46:58.753Z,0.65
2022-08-11T08:49:33.013Z,0.65
2022-08-11T08:52:31.941Z,0.60
2022-08-11T08:55:01.755Z,0.80
2022-08-11T08:57:29.032Z,0.65
2022-08-11T08:59:56.939Z,0.90
2022-08-11T09:02:34.549Z,0.57
2022-08-11T09:05:02.604Z,0.68
2022-08-11T09:07:34.020Z,0.60
2022-08-11T09:10:07.512Z,0.68
2022-08-11T09:12:53.237Z,0.60
2022-08-11T09:15:20.471Z,0.50
2022-08-11T09:17:56.283Z,0.77
2022-08-11T09:20:24.864Z,0.60
2022-08-11T09:24:07.910Z,0.50
2022-08-11T09:26:20.022Z,0.63
2022-08-11T09:28:47.453Z,0.52
2022-08-11T09:31:14.856Z,0.50
2022-08-11T09:33:42.922Z,0.40
2022-08-11T09:36:28.205Z,0.57
2022-08-11T09:39:13.578Z,0.50
2022-08-11T09:42:01.250Z,0.50
2022-08-11T09:44:46.271Z,0.50
2022-08-11T09:47:29.775Z,0.52
2022-08-11T09:50:00.378Z,0.60
2022-08-11T09:52:28.872Z,0.85
2022-08-11T09:54:55.677Z,0.60
2022-08-11T09:57:41.280Z,0.40
2022-08-11T10:00:12.383Z,0.65
2022-08-11T10:02:42.382Z,0.50
2022-08-11T10:05:28.203Z,0.52
2022-08-11T10:07:54.945Z,0.30
2022-08-11T10:10:22.987Z,0.50
2022-08-11T10:12:51.402Z,0.50
2022-08-11T10:15:34.441Z,0.47
2022-08-11T10:18:39.653Z,0.60
2022-08-11T10:21:09.300Z,0.40
2022-08-11T10:24:01.373Z,0.40
2022-08-11T10:26:50.871Z,0.40
2022-08-11T10:29:37.477Z,0.40
2022-08-11T10:32:31.616Z,0.40
2022-08-11T10:34:59.208Z,0.50
2022-08-11T10:38:06.506Z,0.63
2022-08-11T10:40:17.245Z,0.50
2022-08-11T10:43:03.010Z,0.32
2022-08-11T10:45:49.087Z,0.50
2022-08-11T10:48:16.797Z,0.40
2022-08-11T10:51:05.675Z,0.40
2022-08-11T10:53:51.406Z,0.55
2022-08-11T10:56:37.391Z,0.40
2022-08-11T10:59:05.374Z,0.40
2022-08-11T11:01:34.430Z,0.40
2022-08-11T11:04:11.956Z,0.47
2022-08-11T11:06:50.826Z,0.45
2022-08-11T11:09:17.868Z,0.40
2022-08-11T11:12:07.935Z,0.40
2022-08-11T11:14:58.849Z,0.40
2022-08-11T11:18:01.429Z,0.30
2022-08-11T11:23:25.566Z,0.35
2022-08-11T11:26:07.284Z,0.40
2022-08-11T11:28:57.169Z,0.28
2022-08-11T11:31:42.526Z,0.40
2022-08-11T11:34:23.967Z,0.30
2022-08-11T11:36:54.042Z,0.30
2022-08-11T11:39:21.830Z,0.20
2022-08-11T11:41:49.540Z,0.20
2022-08-11T11:44:16.947Z,0.28
2022-08-11T11:46:45.402Z,0.30
2022-08-11T11:49:17.188Z,0.30
2022-08-11T11:51:47.423Z,0.30
2022-08-11T11:54:17.705Z,0.30
2022-08-11T11:56:45.530Z,0.20
2022-08-11T11:59:30.732Z,0.20
2022-08-11T12:01:57.540Z,0.30
2022-08-11T12:04:24.227Z,0.30
2022-08-11T12:06:52.386Z,0.45
2022-08-11T12:09:23.316Z,0.32
2022-08-11T12:12:09.741Z,0.20
2022-08-11T12:14:36.576Z,0.30
2022-08-11T12:17:03.246Z,0.30
2022-08-11T12:19:35.486Z,0.45
2022-08-11T12:22:21.200Z,0.30
2022-08-11T12:25:06.548Z,0.25
2022-08-11T12:27:33.137Z,0.20
2022-08-11T12:30:08.665Z,0.20
2022-08-11T12:32:36.440Z,0.30
2022-08-11T12:35:03.358Z,0.30
2022-08-11T12:37:37.946Z,0.30
2022-08-11T12:40:43.829Z,0.45
2022-08-11T12:43:39.539Z,0.28
2022-08-11T12:46:21.677Z,0.20
2022-08-11T12:49:07.940Z,0.28
2022-08-11T12:52:13.062Z,0.40
2022-08-11T12:54:54.438Z,0.40
2022-08-11T12:57:59.916Z,0.30
2022-08-11T13:00:45.990Z,0.30
2022-08-11T13:03:32.129Z,0.40
2022-08-11T13:06:00.733Z,0.20
2022-08-11T13:08:29.428Z,0.25
2022-08-11T13:11:16.379Z,0.30
2022-08-11T13:13:55.313Z,0.30
2022-08-11T13:16:25.313Z,0.30
2022-08-11T13:18:53.501Z,0.20
2022-08-11T13:21:21.451Z,0.30
2022-08-11T13:24:01.752Z,0.40
2022-08-11T13:26:47.899Z,0.30
2022-08-11T13:29:24.264Z,0.20
2022-08-11T13:31:51.478Z,0.20
2022-08-11T13:34:20.074Z,0.40
2022-08-11T13:36:47.805Z,0.30
2022-08-11T13:39:14.527Z,0.30
2022-08-11T13:41:45.143Z,0.47
2022-08-11T13:44:15.844Z,0.20
2022-08-11T13:46:44.410Z,0.30
2022-08-11T13:49:11.662Z,0.40
2022-08-11T13:51:40.156Z,0.43
2022-08-11T13:54:09.050Z,0.32
2022-08-11T13:56:36.671Z,0.30
2022-08-11T13:59:04.344Z,0.30
2022-08-11T14:02:19.727Z,0.30
2022-08-11T14:04:32.361Z,0.20
2022-08-11T14:07:00.951Z,0.20
2022-08-11T14:09:28.827Z,0.20
2022-08-11T14:12:22.030Z,0.20
2022-08-11T14:14:52.359Z,0.32
2022-08-11T14:17:44.174Z,0.20
2022-08-11T14:20:37.878Z,0.30
2022-08-11T14:22:56.575Z,0.30
2022-08-11T14:25:23.093Z,0.30
2022-08-11T14:28:32.598Z,0.20
2022-08-11T14:31:00.432Z,0.22
2022-08-11T14:33:53.532Z,0.38
2022-08-11T14:36:14.778Z,0.20
2022-08-11T14:38:42.443Z,0.22
2022-08-11T14:41:27.953Z,0.30
2022-08-11T14:44:15.140Z,0.28
2022-08-11T14:47:01.273Z,0.20
2022-08-11T14:49:28.381Z,0.40
2022-08-11T14:51:56.037Z,0.30
2022-08-11T14:54:45.072Z,0.40
2022-08-11T14:57:11.704Z,0.30
2022-08-11T14:59:38.335Z,0.30
2022-08-11T15:02:23.798Z,0.30
2022-08-11T15:04:53.478Z,0.38
2022-08-11T15:07:29.462Z,0.30
2022-08-11T15:10:12.712Z,0.30
2022-08-11T15:12:42.025Z,0.35
2022-08-11T15:15:28.043Z,0.40
2022-08-11T15:17:55.610Z,0.40
2022-08-11T15:20:42.246Z,0.40
2022-08-11T15:23:27.052Z,0.40
2022-08-11T15:25:56.545Z,0.30
2022-08-11T15:28:42.130Z,0.30
2022-08-11T15:31:40.929Z,0.30
2022-08-11T15:37:16.995Z,0.30
2022-08-11T15:40:31.170Z,0.30
2022-08-11T15:43:35.136Z,0.20
2022-08-11T15:48:31.879Z,0.30
2022-08-11T15:51:02.321Z,0.30
2022-08-11T15:53:56.656Z,0.30
2022-08-11T15:56:25.882Z,0.30
2022-08-11T15:59:42.553Z,0.30
2022-08-11T16:02:30.906Z,0.40
2022-08-11T16:04:58.485Z,0.32
2022-08-11T16:07:27.391Z,0.20
2022-08-11T16:10:00.157Z,0.20
2022-08-11T16:12:29.234Z,0.22
2022-08-11T16:15:19.999Z,0.30
2022-08-11T16:17:52.065Z,0.20
2022-08-11T16:20:21.017Z,0.35
2022-08-11T16:22:55.455Z,0.40
2022-08-11T16:27:07.217Z,0.57
2022-08-11T16:28:16.985Z,0.30
2022-08-11T16:30:46.468Z,0.43
2022-08-11T16:33:48.646Z,0.38
2022-08-11T16:36:19.019Z,0.30
2022-08-11T16:38:46.303Z,0.28
2022-08-11T16:41:15.926Z,0.40
2022-08-11T16:44:03.936Z,0.30
2022-08-11T16:46:49.635Z,0.30
2022-08-11T16:49:36.758Z,0.20
2022-08-11T16:52:05.505Z,0.45
2022-08-11T16:54:35.322Z,0.30
2022-08-11T16:57:31.175Z,0.30
2022-08-11T17:00:01.604Z,0.28
2022-08-11T17:02:50.623Z,0.30
2022-08-11T17:05:38.311Z,0.32
2022-08-11T17:08:25.972Z,0.30
2022-08-11T17:11:19.328Z,0.20
2022-08-11T17:13:52.213Z,0.20
2022-08-11T17:16:22.914Z,0.30
2022-08-11T17:18:54.024Z,0.40
2022-08-11T17:21:23.540Z,0.20
2022-08-11T17:23:58.841Z,0.20
2022-08-11T17:26:51.722Z,0.30
2022-08-11T17:29:53.586Z,0.20
2022-08-11T17:33:00.966Z,0.30
2022-08-11T17:35:34.338Z,0.30
2022-08-11T17:38:14.902Z,0.20
2022-08-11T17:41:07.774Z,0.20
2022-08-11T17:43:52.478Z,0.30
2022-08-11T17:46:38.047Z,0.20
2022-08-11T17:49:07.792Z,0.30
2022-08-11T17:51:53.513Z,0.30
2022-08-11T17:54:39.383Z,0.40
2022-08-11T17:57:27.329Z,0.20
2022-08-11T17:59:56.468Z,0.20
2022-08-11T18:02:47.039Z,0.30
2022-08-11T18:05:15.316Z,0.30
2022-08-11T18:08:01.562Z,0.30
2022-08-11T18:10:48.218Z,0.30
2022-08-11T18:13:34.787Z,0.30
2022-08-11T18:16:19.729Z,0.30
2022-08-11T18:19:05.036Z,0.30
2022-08-11T18:22:13.090Z,0.30
2022-08-11T18:25:00.190Z,0.20
2022-08-11T18:27:47.260Z,0.30
2022-08-11T18:30:32.572Z,0.30
2022-08-11T18:33:40.260Z,0.35
2022-08-11T18:36:26.316Z,0.30
2022-08-11T18:39:11.856Z,0.35
2022-08-11T18:41:57.049Z,0.20
2022-08-11T18:44:44.842Z,0.40
2022-08-11T18:47:32.612Z,0.30
2022-08-11T18:50:21.077Z,0.35
2022-08-11T18:53:24.241Z,0.40
2022-08-11T18:56:11.018Z,0.50
2022-08-11T18:58:59.891Z,0.65
2022-08-11T19:01:46.275Z,0.60
2022-08-11T19:04:32.266Z,0.50
2022-08-11T19:07:23.649Z,0.60
2022-08-11T19:10:09.550Z,0.68
2022-08-11T19:12:57.252Z,0.55
2022-08-11T19:15:42.488Z,0.60
2022-08-11T19:18:29.768Z,1.00
2022-08-11T19:21:15.863Z,0.70
2022-08-11T19:24:03.262Z,0.90
2022-08-11T19:26:50.363Z,0.80
2022-08-11T19:30:04.833Z,0.57
2022-08-11T19:32:44.237Z,0.60
2022-08-11T19:35:29.784Z,0.50
2022-08-11T19:38:15.066Z,0.40
2022-08-11T19:41:00.881Z,0.43
2022-08-11T19:43:47.424Z,0.38
2022-08-11T19:46:32.932Z,0.45
2022-08-11T19:49:19.367Z,0.30
2022-08-11T19:52:04.792Z,0.52
2022-08-11T19:54:52.076Z,0.32
2022-08-11T19:57:40.182Z,0.50
2022-08-11T20:00:36.185Z,0.40
2022-08-11T20:03:22.895Z,0.40
2022-08-11T20:06:08.503Z,0.30
2022-08-11T20:08:58.519Z,0.40
2022-08-11T20:11:45.007Z,0.40
2022-08-11T20:14:30.934Z,0.30
2022-08-11T20:17:16.409Z,0.43
2022-08-11T20:22:50.947Z,0.30
2022-08-11T20:25:36.706Z,0.40
2022-08-11T20:28:23.941Z,0.40
2022-08-11T20:31:09.538Z,0.30
2022-08-11T20:33:55.197Z,0.40
2022-08-11T20:36:40.349Z,0.30
2022-08-11T20:39:25.864Z,0.30
2022-08-11T20:42:11.660Z,0.30
2022-08-11T20:44:57.800Z,0.40
2022-08-11T20:47:59.119Z,0.30
2022-08-11T20:50:46.171Z,0.43
2022-08-11T20:53:32.160Z,0.30
2022-08-11T20:56:22.244Z,0.52
2022-08-11T20:59:17.776Z,0.40
2022-08-11T21:02:04.682Z,0.40
2022-08-11T21:04:55.411Z,0.20
2022-08-11T21:07:41.570Z,0.30
2022-08-11T21:10:28.775Z,0.40
2022-08-11T21:13:24.015Z,0.40
2022-08-11T21:16:25.368Z,0.30
2022-08-11T21:19:14.086Z,0.30
2022-08-11T21:21:59.813Z,0.45
2022-08-11T21:24:46.893Z,0.30
2022-08-11T21:27:33.828Z,0.30
2022-08-11T21:30:19.443Z,0.20
2022-08-11T21:33:04.525Z,0.30
2022-08-11T21:35:50.457Z,0.22
2022-08-11T21:38:35.837Z,0.20
2022-08-11T21:41:20.926Z,0.45
2022-08-11T21:44:06.017Z,0.22
2022-08-11T21:46:55.068Z,0.20
2022-08-11T21:49:40.489Z,0.40
2022-08-11T21:52:25.577Z,0.30
2022-08-11T21:55:11.824Z,0.30
2022-08-11T21:57:58.645Z,0.20
2022-08-11T22:00:43.722Z,0.25
2022-08-11T22:03:28.994Z,0.40
2022-08-11T22:06:15.944Z,0.30
2022-08-11T22:09:01.276Z,0.30
2022-08-11T22:11:46.551Z,0.30
2022-08-11T22:14:31.753Z,0.35
2022-08-11T22:17:16.989Z,0.20
2022-08-11T22:20:02.633Z,0.20
2022-08-11T22:22:53.017Z,0.30
2022-08-11T22:25:46.568Z,0.30
2022-08-11T22:28:37.313Z,0.20
2022-08-11T22:31:23.453Z,0.35
2022-08-11T22:34:08.742Z,0.30
2022-08-11T22:36:54.733Z,0.30
2022-08-11T22:39:40.334Z,0.20
2022-08-11T22:42:33.186Z,0.30
2022-08-11T22:45:18.988Z,0.30
2022-08-11T22:48:04.561Z,0.25
2022-08-11T22:50:50.279Z,0.30
2022-08-11T22:53:58.599Z,0.30
2022-08-11T22:56:41.860Z,0.30
2022-08-11T22:59:27.201Z,0.40
2022-08-11T23:02:13.068Z,0.20
2022-08-11T23:04:58.773Z,0.20
2022-08-11T23:07:51.787Z,0.10
2022-08-11T23:10:37.705Z,0.30
2022-08-11T23:13:22.788Z,0.30
2022-08-11T23:16:08.179Z,0.10
2022-08-11T23:18:53.863Z,0.25
2022-08-11T23:21:39.681Z,0.30
2022-08-11T23:24:25.711Z,0.20
2022-08-11T23:27:11.335Z,0.20
2022-08-11T23:29:57.566Z,0.20
2022-08-11T23:32:44.594Z,0.30
2022-08-11T23:35:38.730Z,0.25
2022-08-11T23:38:26.422Z,0.40
2022-08-11T23:41:12.033Z,0.30
2022-08-11T23:43:57.442Z,0.30
2022-08-11T23:46:43.730Z,0.30
2022-08-11T23:49:28.859Z,0.30
2022-08-11T23:52:14.983Z,0.30
2022-08-11T23:55:00.496Z,0.30
2022-08-11T23:57:49.076Z,0.20
